ADDS METAR Data INFO
IDs: Format: Raw Decoded Include TAF

Data at: 1931 UTC 19 Jul 2018

KHWY 191915Z AUTO 00000KT 10SM CLR 30/11 A3008 RMK AO2 T02970111
KHWY 191855Z AUTO 00000KT 10SM CLR 29/11 A3008 RMK AO2 T02940106
KHWY 191835Z AUTO 00000KT 10SM CLR 30/12 A3009 RMK AO2 T03010116
KHWY 191815Z AUTO 11003KT 10SM CLR 30/12 A3009 RMK AO2 T02960115
KHWY 191755Z AUTO 12003KT 10SM CLR 28/13 A3010 RMK AO2 T02800128 10292 20212
KHWY 191735Z AUTO 10003KT 10SM SCT055 29/13 A3010 RMK AO2 T02910126
KHWY 191715Z AUTO 23003KT 10SM SCT055 29/14 A3010 RMK AO2 T02900143
KHWY 191655Z AUTO 00000KT 10SM CLR 28/13 A3011 RMK AO2 T02830132
KHWY 191635Z AUTO 14004KT 10SM CLR 28/14 A3011 RMK AO2 T02840140
KHWY 191615Z AUTO 00000KT 10SM CLR 28/14 A3012 RMK AO2 T02780143
KHWY 191555Z AUTO 00000KT 10SM CLR 27/14 A3012 RMK AO2 T02730144
KHWY 191535Z AUTO 00000KT 10SM CLR 27/15 A3012 RMK AO2 T02680148
KHWY 191515Z AUTO 08003KT 10SM CLR 27/15 A3012 RMK AO2 T02650147
KHWY 191455Z AUTO 11004KT 10SM CLR 26/14 A3012 RMK AO2 T02630140
KHWY 191435Z AUTO 04005KT 10SM CLR 26/14 A3012 RMK AO2 T02570144
KHWY 191415Z AUTO 06005KT 10SM CLR 26/14 A3012 RMK AO2 T02580140
KHWY 191355Z AUTO 05006KT 10SM CLR 25/14 A3011 RMK AO2 T02520139
KHWY 191335Z AUTO 04004KT 10SM CLR 25/14 A3011 RMK AO2 T02470142
KHWY 191315Z AUTO 05006KT 10SM CLR 24/15 A3011 RMK AO2 T02400146
KHWY 191255Z AUTO 05006KT 10SM CLR 23/15 A3011 RMK AO2 T02340150
KHWY 191235Z AUTO 05006KT 10SM CLR 23/15 A3010 RMK AO2 T02270154
KHWY 191215Z AUTO 03006KT 10SM SCT075 22/15 A3010 RMK AO2 T02210154
KHWY 191155Z AUTO 01005KT 10SM OVC075 21/15 A3009 RMK AO2 T02110152 10212 20154
KHWY 191135Z AUTO 02004KT 10SM OVC075 21/15 A3009 RMK AO2 T02070154
KHWY 191115Z AUTO 00000KT 10SM BKN075 19/16 A3008 RMK AO2 T01880159
KHWY 191055Z AUTO 00000KT 10SM BKN075 18/16 A3007 RMK AO2 T01750155
KHWY 191035Z AUTO 00000KT 10SM BKN075 17/15 A3007 RMK AO2 T01670151
KHWY 191015Z AUTO 00000KT 10SM BKN075 16/15 A3007 RMK AO2 T01620146
KHWY 190955Z AUTO 00000KT 10SM BKN075 16/14 A3006 RMK AO2 T01560141
KHWY 190935Z AUTO 00000KT 10SM SCT075 16/15 A3005 RMK AO2 T01620147
KHWY 190915Z AUTO 00000KT 10SM SCT080 16/15 A3004 RMK AO2 T01640148
KHWY 190855Z AUTO 00000KT 10SM OVC080 17/15 A3004 RMK AO2 T01680151
KHWY 190835Z AUTO 00000KT 10SM OVC080 17/15 A3005 RMK AO2 T01670150
KHWY 190815Z AUTO 00000KT 10SM BKN080 17/15 A3004 RMK AO2 T01650149
KHWY 190755Z AUTO 13003KT 10SM SCT080 17/15 A3005 RMK AO2 T01650149
KHWY 190735Z AUTO 00000KT 10SM SCT080 16/15 A3004 RMK AO2 T01610145
KHWY 190715Z AUTO 00000KT 10SM SCT080 16/14 A3004 RMK AO2 T01550138
KHWY 190655Z AUTO 00000KT 10SM CLR 16/15 A3004 RMK AO2 T01600145
KHWY 190635Z AUTO 00000KT 7SM CLR 16/14 A3004 RMK AO2 T01560140
KHWY 190615Z AUTO 00000KT 10SM CLR 16/14 A3004 RMK AO2 T01570140
KHWY 190555Z AUTO 00000KT 10SM CLR 16/14 A3003 RMK AO2 T01590141 10258 20156 402940156
KHWY 190535Z AUTO 00000KT 10SM CLR 17/15 A3003 RMK AO2 T01660147
KHWY 190515Z AUTO 00000KT 10SM CLR 16/14 A3003 RMK AO2 T01570140
KHWY 190455Z AUTO 00000KT 10SM CLR 16/14 A3003 RMK AO2 T01580142
KHWY 190435Z AUTO 00000KT 10SM CLR 16/14 A3002 RMK AO2 T01560138
KHWY 190415Z AUTO 00000KT 10SM CLR 16/14 A3001 RMK AO2 T01610141
KHWY 190355Z AUTO 00000KT 10SM CLR 17/15 A3001 RMK AO2 T01690146
KHWY 190335Z AUTO 00000KT 10SM CLR 17/14 A3000 RMK AO2 T01650143
KHWY 190315Z AUTO 00000KT 10SM CLR 17/14 A3000 RMK AO2 T01650142
KHWY 190255Z AUTO 00000KT 10SM CLR 17/14 A3000 RMK AO2 T01690142
KHWY 190235Z AUTO 00000KT 10SM CLR 18/15 A3000 RMK AO2 T01790152
KHWY 190215Z AUTO 00000KT 10SM CLR 18/15 A3000 RMK AO2 T01780148
KHWY 190155Z AUTO 00000KT 10SM CLR 18/15 A3000 RMK AO2 T01830152
KHWY 190135Z AUTO 00000KT 10SM CLR 19/15 A2999 RMK AO2 T01890152
KHWY 190115Z AUTO 00000KT 10SM CLR 18/15 A2998 RMK AO2 T01840150
KHWY 190055Z AUTO 00000KT 10SM CLR 20/15 A2998 RMK AO2 T02020152
KHWY 190035Z AUTO 00000KT 10SM CLR 21/16 A2998 RMK AO2 T02120158
KHWY 190015Z AUTO 30003KT 10SM CLR 25/15 A2998 RMK AO2 T02460145
KHWY 182355Z AUTO 29004KT 10SM CLR 26/14 A2997 RMK AO2 T02600138 10294 20260
KHWY 182335Z AUTO 30005KT 10SM CLR 27/14 A2997 RMK AO2 T02690135
KHWY 182315Z AUTO 31005KT 10SM CLR 28/11 A2997 RMK AO2 T02750110
KHWY 182255Z AUTO 33005KT 10SM CLR 28/11 A2997 RMK AO2 T02800110
KHWY 182235Z AUTO 34007KT 10SM CLR 28/10 A2997 RMK AO2 T02840101
KHWY 182215Z AUTO 33006KT 10SM CLR 29/10 A2997 RMK AO2 T02870100
KHWY 182155Z AUTO 33007KT 10SM CLR 29/10 A2997 RMK AO2 T02900102
KHWY 182135Z AUTO 32007KT 10SM CLR 29/11 A2996 RMK AO2 T02900107
KHWY 182115Z AUTO 32007KT 10SM SCT070 29/11 A2997 RMK AO2 T02900112
KHWY 182055Z AUTO 31007KT 10SM CLR 29/12 A2997 RMK AO2 T02930115
KHWY 182035Z AUTO 33010KT 10SM SCT065 29/11 A2997 RMK AO2 T02890106
KHWY 182015Z AUTO 32007KT 10SM SCT065 29/10 A2997 RMK AO2 T02910101
KHWY 181955Z AUTO 32005G17KT 10SM SCT065 29/10 A2998 RMK AO2 T02910101
KHWY 181935Z AUTO 36009KT 10SM SCT065 29/10 A2998 RMK AO2 T02890101
KHWY 181915Z AUTO 33008KT 10SM CLR 29/10 A2999 RMK AO2 T02890099
KHWY 181855Z AUTO 32008KT 10SM SCT060 29/11 A2998 RMK AO2 T02890106
KHWY 181835Z AUTO 35007KT 10SM BKN060 29/11 A2998 RMK AO2 T02860110
KHWY 181815Z AUTO 35009KT 10SM BKN060 28/11 A2999 RMK AO2 T02800108
KHWY 181755Z AUTO 36004KT 10SM SCT060 29/11 A2999 RMK AO2 T02860106 10289 20225
KHWY 181735Z AUTO 36009KT 10SM SCT060 28/11 A2999 RMK AO2 T02760106
KHWY 181715Z AUTO 29009KT 10SM SCT050 28/12 A2999 RMK AO2 T02820122
KHWY 181655Z AUTO 34009KT 10SM SCT050 28/12 A2999 RMK AO2 T02820124
KHWY 181635Z AUTO 34007KT 10SM SCT050 28/12 A2999 RMK AO2 T02840117
KHWY 181615Z AUTO 34010KT 10SM CLR 28/13 A3000 RMK AO2 T02770126
KHWY 181555Z AUTO 35006KT 10SM CLR 27/13 A2999 RMK AO2 T02740127
KHWY 181535Z AUTO 36005KT 10SM SCT047 27/13 A2999 RMK AO2 T02730130
KHWY 181515Z AUTO 02004KT 10SM CLR 27/14 A3000 RMK AO2 T02660135
KHWY 181455Z AUTO 02003KT 10SM CLR 26/13 A3000 RMK AO2 T02620134
KHWY 181435Z AUTO 01008KT 10SM CLR 26/14 A3000 RMK AO2 T02580136
KHWY 181415Z AUTO 33010KT 10SM CLR 25/13 A3000 RMK AO2 T02530134
KHWY 181355Z AUTO 33009KT 10SM CLR 25/14 A3000 RMK AO2 T02510136
KHWY 181335Z AUTO 33011G15KT 10SM CLR 25/13 A2999 RMK AO2 T02460134
KHWY 181315Z AUTO 35010G14KT 10SM CLR 24/13 A3000 RMK AO2 T02420132
KHWY 181255Z AUTO 32010G16KT 10SM CLR 24/14 A2998 RMK AO2 T02390135
KHWY 181235Z AUTO 31008KT 10SM CLR 24/14 A2998 RMK AO2 T02350136
KHWY 181215Z AUTO 31008KT 10SM CLR 23/14 A2998 RMK AO2 T02290136
KHWY 181155Z AUTO 32007KT 10SM CLR 23/13 A2998 RMK AO2 70053 T02250131 10225 20189
KHWY 181135Z AUTO 32007KT 10SM CLR 22/13 A2997 RMK AO2 T02200130
KHWY 181115Z AUTO 33006KT 10SM CLR 21/13 A2996 RMK AO2 T02110134
KHWY 181055Z AUTO 32005KT 10SM CLR 20/13 A2995 RMK AO2 T02030132
KHWY 181035Z AUTO 33005KT 10SM CLR 20/13 A2995 RMK AO2 T02010134
KHWY 181015Z AUTO 32005KT 10SM CLR 20/14 A2994 RMK AO2 LTG DSNT E T01970135
KHWY 180955Z AUTO 34004KT 10SM CLR 20/14 A2994 RMK AO2 T02010135
KHWY 180935Z AUTO 00000KT 10SM CLR 19/14 A2993 RMK AO2 T01920141
KHWY 180915Z AUTO 00000KT 10SM CLR 20/14 A2992 RMK AO2 T01950142
KHWY 180855Z AUTO 33006KT 10SM CLR 20/15 A2992 RMK AO2 T01980149
KHWY 180835Z AUTO 33005KT 10SM CLR 20/15 A2992 RMK AO2 T01980152
KHWY 180815Z AUTO 31004KT 10SM CLR 20/15 A2993 RMK AO2 T02000153
KHWY 180755Z AUTO 00000KT 10SM CLR 20/16 A2993 RMK AO2 T02030156
KHWY 180735Z AUTO 31004KT 10SM CLR 21/16 A2992 RMK AO2 T02110156